Time;durP1;ratioP1;P1;durP2;ratioP2;P2;SDS_P1;SDS_P2;PMS_P1;PMS_P2;Temp;Humidity;BMP_temperature;BMP_pressure;BME280_temperature;BME280_humidity;BME280_pressure;Samples;Min_cycle;Max_cycle;Signal;HPM_P1;HPM_P2
2023/06/03 00:02:03;;;;;;;3.08;2.38;;;;;;;;;;4998590;28;20499;-62
2023/06/03 00:04:29;;;;;;;4.53;1.85;;;;;;;;;;5015925;28;20028;-62
2023/06/03 00:06:55;;;;;;;2.00;1.90;;;;;;;;;;5016281;28;20053;-62
2023/06/03 00:09:20;;;;;;;2.38;2.13;;;;;;;;;;5015941;28;20121;-62
2023/06/03 00:11:46;;;;;;;2.20;2.08;;;;;;;;;;5015553;28;20014;-62
2023/06/03 00:14:11;;;;;;;2.08;1.98;;;;;;;;;;5015917;28;20692;-62
2023/06/03 00:16:36;;;;;;;2.60;2.40;;;;;;;;;;4998317;28;20034;-62
2023/06/03 00:19:02;;;;;;;4.32;2.22;;;;;;;;;;5015930;28;20080;-62
2023/06/03 00:21:27;;;;;;;5.28;2.60;;;;;;;;;;5016190;28;20021;-62
2023/06/03 00:23:53;;;;;;;3.05;2.85;;;;;;;;;;5016227;28;20038;-62
2023/06/03 00:26:19;;;;;;;4.53;2.72;;;;;;;;;;4998284;28;20041;-62
2023/06/03 00:28:50;;;;;;;2.58;2.42;;;;;;;;;;4998199;28;20563;-62
2023/06/03 00:31:16;;;;;;;2.63;2.42;;;;;;;;;;4998065;28;20036;-62
2023/06/03 00:33:41;;;;;;;2.53;2.30;;;;;;;;;;4998256;28;20378;-62
2023/06/03 00:36:07;;;;;;;2.30;2.13;;;;;;;;;;5015954;28;20065;-62
2023/06/03 00:38:32;;;;;;;2.80;2.17;;;;;;;;;;4998200;28;20033;-61
2023/06/03 00:40:57;;;;;;;3.78;2.30;;;;;;;;;;4997977;28;20037;-61
2023/06/03 00:43:24;;;;;;;2.42;2.33;;;;;;;;;;4998030;28;20060;-62
2023/06/03 00:45:49;;;;;;;4.65;2.85;;;;;;;;;;5015548;28;20049;-62
2023/06/03 00:48:15;;;;;;;3.67;2.47;;;;;;;;;;4997958;28;20033;-62
2023/06/03 00:50:41;;;;;;;2.47;2.28;;;;;;;;;;5014737;28;20084;-62
2023/06/03 00:53:07;;;;;;;2.67;2.47;;;;;;;;;;5015405;28;20029;-62
2023/06/03 00:55:32;;;;;;;3.53;2.60;;;;;;;;;;4997520;28;20401;-62
2023/06/03 00:57:58;;;;;;;2.70;2.50;;;;;;;;;;5014378;28;20030;-62
2023/06/03 01:00:24;;;;;;;2.55;2.35;;;;;;;;;;4981459;28;20046;-62
2023/06/03 01:02:50;;;;;;;2.80;2.58;;;;;;;;;;5014941;28;20467;-62
2023/06/03 01:05:16;;;;;;;3.03;2.55;;;;;;;;;;5014384;28;20370;-62
2023/06/03 01:07:53;;;;;;;4.07;2.78;;;;;;;;;;4996688;28;20025;-62
2023/06/03 01:10:25;;;;;;;2.60;2.38;;;;;;;;;;5015108;28;20030;-62
2023/06/03 01:13:09;;;;;;;2.78;2.33;;;;;;;;;;5014803;28;20022;-62
2023/06/03 01:15:35;;;;;;;2.92;2.75;;;;;;;;;;5014881;28;20064;-62
2023/06/03 01:18:03;;;;;;;2.75;2.55;;;;;;;;;;4997288;28;20041;-62
2023/06/03 01:20:30;;;;;;;2.55;2.35;;;;;;;;;;4997207;28;20033;-62
2023/06/03 01:23:17;;;;;;;3.00;2.47;;;;;;;;;;5014575;28;20029;-62
2023/06/03 01:25:43;;;;;;;2.97;2.13;;;;;;;;;;5025861;23;20042;-61
2023/06/03 01:28:08;;;;;;;2.88;2.35;;;;;;;;;;4995684;28;20172;-58
2023/06/03 01:30:35;;;;;;;2.47;2.08;;;;;;;;;;5025060;23;20160;-61
2023/06/03 01:33:01;;;;;;;3.25;2.20;;;;;;;;;;5014602;28;20029;-62
2023/06/03 01:35:27;;;;;;;3.17;2.17;;;;;;;;;;5014449;28;20045;-62
2023/06/03 01:37:53;;;;;;;2.22;2.08;;;;;;;;;;5014898;28;20457;-62
2023/06/03 01:40:19;;;;;;;4.05;2.17;;;;;;;;;;4996375;28;20397;-62
2023/06/03 01:42:44;;;;;;;2.90;2.60;;;;;;;;;;4996905;28;20557;-62
2023/06/03 01:45:10;;;;;;;3.47;1.80;;;;;;;;;;4996566;28;20030;-62
2023/06/03 01:47:35;;;;;;;2.85;2.63;;;;;;;;;;4996523;28;20034;-62
2023/06/03 01:50:01;;;;;;;3.63;2.42;;;;;;;;;;5014276;28;20465;-62
2023/06/03 01:52:28;;;;;;;3.53;3.00;;;;;;;;;;4996735;28;20025;-62
2023/06/03 01:54:54;;;;;;;3.63;2.67;;;;;;;;;;4996794;28;20362;-62
2023/06/03 01:57:20;;;;;;;3.83;2.80;;;;;;;;;;4996647;28;20121;-63
2023/06/03 01:59:45;;;;;;;2.85;2.63;;;;;;;;;;4996385;28;20117;-63
2023/06/03 02:02:11;;;;;;;3.50;2.42;;;;;;;;;;4996587;28;20026;-63
2023/06/03 02:04:36;;;;;;;2.70;2.53;;;;;;;;;;4996100;28;20018;-63
2023/06/03 02:07:02;;;;;;;3.15;2.70;;;;;;;;;;5013859;28;20026;-63
2023/06/03 02:09:30;;;;;;;3.25;2.95;;;;;;;;;;5013925;28;20026;-62
2023/06/03 02:11:56;;;;;;;5.93;2.88;;;;;;;;;;5014103;28;20022;-62
2023/06/03 02:14:21;;;;;;;5.00;2.95;;;;;;;;;;5014208;28;20022;-62
2023/06/03 02:16:48;;;;;;;4.70;2.55;;;;;;;;;;5014001;28;20074;-62
2023/06/03 02:19:17;;;;;;;4.72;2.50;;;;;;;;;;5014317;28;20388;-62
2023/06/03 02:21:43;;;;;;;3.00;2.30;;;;;;;;;;4996283;28;20033;-62
2023/06/03 02:24:10;;;;;;;4.50;2.70;;;;;;;;;;4995379;28;20144;-62
2023/06/03 02:26:36;;;;;;;3.15;2.50;;;;;;;;;;5013669;28;20105;-62
2023/06/03 02:29:02;;;;;;;3.83;2.30;;;;;;;;;;4995552;28;20473;-62
2023/06/03 02:31:28;;;;;;;3.15;2.22;;;;;;;;;;4996071;28;20096;-62
2023/06/03 02:33:53;;;;;;;4.57;2.50;;;;;;;;;;4996218;28;20419;-62
2023/06/03 02:36:19;;;;;;;3.55;2.40;;;;;;;;;;4996157;28;20065;-63
2023/06/03 02:38:47;;;;;;;3.22;2.33;;;;;;;;;;4995911;28;20061;-63
2023/06/03 02:41:12;;;;;;;2.55;2.35;;;;;;;;;;4995560;28;20032;-63
2023/06/03 02:43:38;;;;;;;4.88;2.40;;;;;;;;;;5013066;28;20100;-63
2023/06/03 02:46:04;;;;;;;4.13;2.35;;;;;;;;;;4996047;28;20496;-62
2023/06/03 02:48:29;;;;;;;4.13;2.47;;;;;;;;;;4995263;28;20030;-62
2023/06/03 02:50:55;;;;;;;5.57;2.10;;;;;;;;;;4995557;28;20021;-62
2023/06/03 02:53:21;;;;;;;2.72;2.25;;;;;;;;;;4995234;28;20535;-62
2023/06/03 02:55:46;;;;;;;4.45;2.35;;;;;;;;;;4995339;28;20029;-62
2023/06/03 02:58:12;;;;;;;2.60;2.40;;;;;;;;;;5013382;28;20030;-62
2023/06/03 03:00:39;;;;;;;3.30;2.35;;;;;;;;;;4995770;28;20445;-62
2023/06/03 03:03:04;;;;;;;3.72;2.53;;;;;;;;;;5013806;28;20072;-62
2023/06/03 03:05:30;;;;;;;2.92;2.63;;;;;;;;;;4995820;28;20018;-62
2023/06/03 03:07:58;;;;;;;2.40;2.20;;;;;;;;;;5013167;28;20184;-62
2023/06/03 03:10:24;;;;;;;2.38;2.20;;;;;;;;;;4997567;28;20022;-62
2023/06/03 03:12:50;;;;;;;7.32;2.80;;;;;;;;;;4999428;28;20022;-62
2023/06/03 03:15:15;;;;;;;4.45;2.70;;;;;;;;;;4999846;28;20021;-62
2023/06/03 03:17:41;;;;;;;3.50;2.50;;;;;;;;;;4999230;28;20060;-62
2023/06/03 03:20:08;;;;;;;4.25;2.33;;;;;;;;;;4999702;28;20026;-62
2023/06/03 03:22:34;;;;;;;5.03;2.42;;;;;;;;;;5000143;28;20029;-62
2023/06/03 03:25:00;;;;;;;2.72;2.50;;;;;;;;;;4999329;28;20129;-62
2023/06/03 03:27:26;;;;;;;4.50;2.60;;;;;;;;;;5017274;28;20109;-62
2023/06/03 03:29:53;;;;;;;5.55;2.65;;;;;;;;;;4983442;28;20040;-62
2023/06/03 03:32:20;;;;;;;2.80;2.33;;;;;;;;;;4998778;28;20393;-63
2023/06/03 03:34:51;;;;;;;3.10;2.38;;;;;;;;;;4998600;28;20049;-64
2023/06/03 03:37:16;;;;;;;2.95;2.20;;;;;;;;;;4998287;28;20406;-63
2023/06/03 03:39:45;;;;;;;3.70;2.35;;;;;;;;;;4983428;28;20084;-63
2023/06/03 03:42:10;;;;;;;4.60;2.70;;;;;;;;;;4998999;28;20030;-63
2023/06/03 03:44:35;;;;;;;2.90;2.60;;;;;;;;;;5016745;28;20030;-63
2023/06/03 03:47:01;;;;;;;4.38;2.20;;;;;;;;;;4999538;28;20034;-63
2023/06/03 03:49:29;;;;;;;4.60;2.40;;;;;;;;;;4999114;28;20068;-63
2023/06/03 03:51:57;;;;;;;3.17;2.40;;;;;;;;;;4998737;28;20030;-62
2023/06/03 03:54:23;;;;;;;3.45;2.50;;;;;;;;;;4999191;28;20450;-63
2023/06/03 03:56:54;;;;;;;2.35;2.15;;;;;;;;;;4999344;28;20373;-62
2023/06/03 03:59:20;;;;;;;3.38;2.20;;;;;;;;;;4998813;28;20037;-63
2023/06/03 04:01:46;;;;;;;3.28;2.33;;;;;;;;;;4998632;28;20450;-63
2023/06/03 04:04:35;;;;;;;3.22;2.15;;;;;;;;;;4998846;28;20389;-63
2023/06/03 04:07:01;;;;;;;2.53;2.17;;;;;;;;;;4999227;28;20504;-63
2023/06/03 04:09:26;;;;;;;5.13;2.30;;;;;;;;;;5016059;28;20117;-63
2023/06/03 04:11:52;;;;;;;2.65;2.25;;;;;;;;;;4989523;28;20034;-63
2023/06/03 04:14:27;;;;;;;2.80;2.15;;;;;;;;;;4979472;28;20498;-62
2023/06/03 04:16:54;;;;;;;3.08;2.47;;;;;;;;;;4979172;28;20037;-63
2023/06/03 04:19:32;;;;;;;2.55;2.35;;;;;;;;;;4995081;28;20040;-63
2023/06/03 04:22:00;;;;;;;3.75;2.15;;;;;;;;;;4994666;28;20084;-63
2023/06/03 04:24:26;;;;;;;2.60;2.40;;;;;;;;;;4995475;28;20029;-68
2023/06/03 04:26:53;;;;;;;3.05;2.30;;;;;;;;;;4997542;28;20026;-63
2023/06/03 04:29:19;;;;;;;2.58;2.38;;;;;;;;;;4996116;28;20486;-63
2023/06/03 04:31:45;;;;;;;2.70;2.50;;;;;;;;;;4991152;28;20042;-63
2023/06/03 04:34:10;;;;;;;3.65;2.58;;;;;;;;;;4991781;28;20030;-63
2023/06/03 04:36:36;;;;;;;3.70;2.15;;;;;;;;;;4991934;28;20386;-63
2023/06/03 04:39:05;;;;;;;3.42;2.22;;;;;;;;;;4991708;28;20038;-63
2023/06/03 04:41:32;;;;;;;2.42;2.20;;;;;;;;;;4991459;28;20461;-63
2023/06/03 04:44:01;;;;;;;5.75;2.10;;;;;;;;;;4975805;28;20465;-63
2023/06/03 04:46:31;;;;;;;3.17;2.40;;;;;;;;;;4991707;28;20048;-63
2023/06/03 04:48:59;;;;;;;2.33;1.88;;;;;;;;;;4975435;28;20405;-63
2023/06/03 04:51:28;;;;;;;3.38;2.13;;;;;;;;;;4991268;28;20489;-63
2023/06/03 04:53:56;;;;;;;3.72;2.40;;;;;;;;;;4991462;28;20037;-63
2023/06/03 04:56:24;;;;;;;2.40;2.20;;;;;;;;;;4991488;28;20040;-62
2023/06/03 04:58:54;;;;;;;3.17;2.30;;;;;;;;;;4990719;28;20046;-62
2023/06/03 05:01:23;;;;;;;4.00;2.20;;;;;;;;;;4990951;28;20026;-57
2023/06/03 05:03:49;;;;;;;5.80;2.25;;;;;;;;;;4992061;28;20109;-57
2023/06/03 05:06:14;;;;;;;2.50;2.35;;;;;;;;;;4974868;28;20034;-57
2023/06/03 05:08:41;;;;;;;2.90;2.03;;;;;;;;;;4991358;28;20476;-57
2023/06/03 05:11:07;;;;;;;2.40;1.90;;;;;;;;;;4991148;28;20053;-57
2023/06/03 05:13:34;;;;;;;3.20;2.08;;;;;;;;;;4991352;28;20022;-58
2023/06/03 05:16:00;;;;;;;10.38;2.35;;;;;;;;;;4990811;28;20034;-58
2023/06/03 05:18:26;;;;;;;2.55;2.10;;;;;;;;;;4991619;28;20036;-57
2023/06/03 05:20:51;;;;;;;3.42;1.92;;;;;;;;;;4994447;28;20117;-58
2023/06/03 05:23:16;;;;;;;5.93;2.00;;;;;;;;;;4993581;28;20030;-56
2023/06/03 05:25:42;;;;;;;3.10;2.10;;;;;;;;;;4993214;28;20041;-57
2023/06/03 05:28:11;;;;;;;2.55;2.15;;;;;;;;;;4994018;28;20084;-57
2023/06/03 05:30:36;;;;;;;3.90;2.10;;;;;;;;;;4994111;28;20042;-57
2023/06/03 05:33:03;;;;;;;2.33;1.98;;;;;;;;;;4993112;28;20058;-57
2023/06/03 05:35:29;;;;;;;3.85;2.03;;;;;;;;;;4995227;28;20022;-57
2023/06/03 05:37:55;;;;;;;2.13;1.92;;;;;;;;;;4992555;28;20062;-57
2023/06/03 05:40:20;;;;;;;2.38;2.17;;;;;;;;;;4989691;28;20058;-57
2023/06/03 05:42:47;;;;;;;3.95;1.73;;;;;;;;;;4974128;28;20034;-57
2023/06/03 05:45:14;;;;;;;2.80;2.10;;;;;;;;;;4974288;28;20031;-57
2023/06/03 05:47:39;;;;;;;4.03;2.55;;;;;;;;;;4974113;28;20030;-57
2023/06/03 05:50:06;;;;;;;4.07;1.95;;;;;;;;;;4974048;28;20023;-57
2023/06/03 05:52:37;;;;;;;5.10;1.90;;;;;;;;;;4974101;28;20027;-57
2023/06/03 05:55:02;;;;;;;4.18;1.90;;;;;;;;;;5002747;23;20085;-61
2023/06/03 05:57:29;;;;;;;2.22;2.10;;;;;;;;;;5007867;23;20146;-56
2023/06/03 05:59:55;;;;;;;4.22;2.05;;;;;;;;;;5032402;23;20103;-57
2023/06/03 06:02:20;;;;;;;3.17;2.30;;;;;;;;;;5032691;28;20025;-61
2023/06/03 06:04:51;;;;;;;2.78;2.10;;;;;;;;;;5032624;28;20032;-61
2023/06/03 06:07:16;;;;;;;3.28;2.30;;;;;;;;;;5032355;28;20029;-61
2023/06/03 06:09:42;;;;;;;2.70;2.20;;;;;;;;;;5031466;28;20345;-61
2023/06/03 06:12:08;;;;;;;2.80;2.17;;;;;;;;;;5032714;28;20033;-62
2023/06/03 06:14:33;;;;;;;2.85;2.35;;;;;;;;;;5032050;28;20445;-62
2023/06/03 06:16:59;;;;;;;6.15;2.40;;;;;;;;;;5032147;28;20489;-62
2023/06/03 06:19:25;;;;;;;5.57;2.38;;;;;;;;;;5032275;28;20036;-62
2023/06/03 06:21:51;;;;;;;7.93;2.00;;;;;;;;;;5032431;28;20021;-62
2023/06/03 06:24:16;;;;;;;2.45;2.28;;;;;;;;;;5032411;28;20033;-62
2023/06/03 06:26:47;;;;;;;27.73;23.83;;;;;;;;;;5032070;28;20013;-62
2023/06/03 06:29:12;;;;;;;10.70;9.70;;;;;;;;;;5043212;23;21455;-57
2023/06/03 06:31:38;;;;;;;4.80;3.53;;;;;;;;;;5015723;28;20042;-61
2023/06/03 06:34:05;;;;;;;4.28;2.40;;;;;;;;;;5016151;28;20021;-61
2023/06/03 06:36:49;;;;;;;6.25;4.10;;;;;;;;;;5016145;28;20469;-62
2023/06/03 06:39:29;;;;;;;8.38;6.07;;;;;;;;;;5016337;28;20032;-62
2023/06/03 06:42:03;;;;;;;8.00;6.07;;;;;;;;;;5015790;28;20163;-62
2023/06/03 06:44:29;;;;;;;13.77;12.32;;;;;;;;;;5035480;28;20083;-62
2023/06/03 06:46:55;;;;;;;9.88;8.98;;;;;;;;;;5037053;28;20112;-62
2023/06/03 06:49:22;;;;;;;12.43;11.10;;;;;;;;;;5019933;28;20036;-62
2023/06/03 06:51:49;;;;;;;9.00;6.20;;;;;;;;;;5019663;28;20033;-62
2023/06/03 06:54:15;;;;;;;6.07;3.85;;;;;;;;;;5019666;28;20075;-62
2023/06/03 06:56:40;;;;;;;5.22;2.80;;;;;;;;;;5019627;28;20030;-62
2023/06/03 06:59:09;;;;;;;2.60;2.25;;;;;;;;;;5036856;28;20436;-62
2023/06/03 07:01:37;;;;;;;5.95;4.78;;;;;;;;;;5036715;28;20033;-62
2023/06/03 07:04:03;;;;;;;2.85;2.60;;;;;;;;;;5036704;28;20030;-62
2023/06/03 07:06:28;;;;;;;4.45;2.83;;;;;;;;;;5019125;28;20124;-62
2023/06/03 07:08:59;;;;;;;;;;;;;;;;;;5019366;28;20026;-62
2023/06/03 07:11:26;;;;;;;3.65;3.35;;;;;;;;;;5018688;28;19909;-62
2023/06/03 07:13:58;;;;;;;2.20;2.00;;;;;;;;;;5018993;28;20400;-62
2023/06/03 07:16:24;;;;;;;4.03;2.70;;;;;;;;;;5036740;28;20026;-62
2023/06/03 07:18:53;;;;;;;3.88;2.60;;;;;;;;;;5018807;28;20481;-62
2023/06/03 07:21:25;;;;;;;56.92;24.67;;;;;;;;;;5018887;28;20453;-62
2023/06/03 07:23:54;;;;;;;13.85;7.68;;;;;;;;;;5018371;28;20025;-62
2023/06/03 07:26:19;;;;;;;27.50;11.57;;;;;;;;;;5036267;28;20078;-62
2023/06/03 07:28:46;;;;;;;3.65;3.35;;;;;;;;;;5018573;28;20048;-62
2023/06/03 07:31:13;;;;;;;4.03;2.60;;;;;;;;;;5018628;28;20044;-62
2023/06/03 07:33:44;;;;;;;9.50;6.25;;;;;;;;;;5018581;28;20033;-62
2023/06/03 07:36:12;;;;;;;6.18;5.30;;;;;;;;;;5018594;28;20029;-62
2023/06/03 07:38:37;;;;;;;4.70;4.30;;;;;;;;;;5017823;28;20321;-62
2023/06/03 07:41:06;;;;;;;6.72;3.20;;;;;;;;;;5018455;28;20397;-62
2023/06/03 07:43:32;;;;;;;3.83;2.53;;;;;;;;;;5018492;28;20025;-62
2023/06/03 07:45:58;;;;;;;2.17;1.92;;;;;;;;;;5036156;28;20033;-62
2023/06/03 07:48:24;;;;;;;8.20;3.28;;;;;;;;;;5018395;28;20484;-62
2023/06/03 07:50:49;;;;;;;4.85;2.40;;;;;;;;;;5035916;28;20053;-62
2023/06/03 07:53:36;;;;;;;24.40;13.70;;;;;;;;;;5035686;28;20109;-62
2023/06/03 07:56:08;;;;;;;16.75;9.43;;;;;;;;;;5035202;28;20472;-62
2023/06/03 07:58:35;;;;;;;13.82;6.65;;;;;;;;;;5035972;28;20028;-62
2023/06/03 08:01:03;;;;;;;4.00;2.67;;;;;;;;;;5035589;28;20087;-62
2023/06/03 08:03:28;;;;;;;4.97;2.03;;;;;;;;;;5034272;28;20064;-62
2023/06/03 08:05:57;;;;;;;8.02;4.60;;;;;;;;;;5035184;28;20061;-62
2023/06/03 08:08:25;;;;;;;12.43;5.60;;;;;;;;;;5035071;28;20061;-62
2023/06/03 08:10:50;;;;;;;3.22;2.58;;;;;;;;;;5035058;28;20036;-62
2023/06/03 08:13:17;;;;;;;3.63;2.20;;;;;;;;;;5035038;28;20021;-62
2023/06/03 08:15:43;;;;;;;3.17;1.80;;;;;;;;;;5035522;28;20038;-62
2023/06/03 08:18:09;;;;;;;3.03;2.10;;;;;;;;;;5034957;28;20088;-62
2023/06/03 08:20:36;;;;;;;2.58;2.38;;;;;;;;;;5017249;28;20426;-62
2023/06/03 08:23:01;;;;;;;5.22;3.50;;;;;;;;;;5034900;28;20029;-62
2023/06/03 08:25:27;;;;;;;6.93;5.28;;;;;;;;;;5034822;28;20025;-62
2023/06/03 08:27:52;;;;;;;5.95;5.25;;;;;;;;;;5017119;28;20037;-62
2023/06/03 08:30:18;;;;;;;3.95;2.50;;;;;;;;;;5034795;28;20436;-62
2023/06/03 08:32:46;;;;;;;4.82;3.35;;;;;;;;;;5017328;28;20033;-62
2023/06/03 08:35:12;;;;;;;3.00;2.72;;;;;;;;;;5034507;28;20025;-61
2023/06/03 08:37:44;;;;;;;2.35;1.77;;;;;;;;;;5035455;28;20025;-61
2023/06/03 08:40:10;;;;;;;4.20;2.70;;;;;;;;;;5035617;28;20378;-61
2023/06/03 08:42:46;;;;;;;3.30;1.98;;;;;;;;;;5034732;28;20025;-62
2023/06/03 08:45:12;;;;;;;1.55;1.45;;;;;;;;;;5034788;28;20453;-62
2023/06/03 08:47:46;;;;;;;5.22;1.83;;;;;;;;;;5034949;28;20025;-62
2023/06/03 08:50:14;;;;;;;4.25;1.52;;;;;;;;;;5034910;28;20036;-62
2023/06/03 08:52:39;;;;;;;4.75;3.58;;;;;;;;;;5034755;28;20040;-62
2023/06/03 08:55:06;;;;;;;4.32;2.00;;;;;;;;;;5034851;28;20025;-62
2023/06/03 08:57:37;;;;;;;3.28;1.13;;;;;;;;;;5034900;28;20036;-62
2023/06/03 09:00:05;;;;;;;1.65;1.55;;;;;;;;;;5034788;28;20041;-62
2023/06/03 09:02:30;;;;;;;1.73;1.40;;;;;;;;;;5016375;28;20014;-62
2023/06/03 09:04:56;;;;;;;1.75;1.50;;;;;;;;;;5034478;28;20033;-62
2023/06/03 09:07:22;;;;;;;2.15;1.20;;;;;;;;;;5033557;28;20029;-62
2023/06/03 09:09:49;;;;;;;4.95;1.80;;;;;;;;;;5034124;28;20022;-58
2023/06/03 09:12:15;;;;;;;1.45;1.15;;;;;;;;;;5033766;28;20104;-57
2023/06/03 09:14:40;;;;;;;2.42;1.38;;;;;;;;;;5034337;28;20099;-57
2023/06/03 09:17:06;;;;;;;2.83;2.05;;;;;;;;;;5016799;28;20051;-57
2023/06/03 09:19:32;;;;;;;2.08;1.70;;;;;;;;;;5033887;28;20022;-57
2023/06/03 09:21:58;;;;;;;1.75;1.45;;;;;;;;;;5033748;28;20021;-57
2023/06/03 09:24:23;;;;;;;3.83;1.45;;;;;;;;;;5034012;28;20038;-57
2023/06/03 09:26:49;;;;;;;2.05;1.23;;;;;;;;;;5034128;28;20042;-57
2023/06/03 09:29:14;;;;;;;1.83;1.58;;;;;;;;;;5012553;28;20046;-57
2023/06/03 09:31:43;;;;;;;3.78;1.30;;;;;;;;;;5013975;28;20026;-57
2023/06/03 09:34:09;;;;;;;2.97;1.20;;;;;;;;;;5014570;28;20104;-57
2023/06/03 09:36:44;;;;;;;5.93;1.95;;;;;;;;;;5014438;28;20108;-57
2023/06/03 09:39:10;;;;;;;2.33;1.50;;;;;;;;;;5014341;28;20047;-57
2023/06/03 09:41:36;;;;;;;2.20;2.00;;;;;;;;;;5014037;28;20541;-58
2023/06/03 09:44:03;;;;;;;1.85;1.50;;;;;;;;;;5012754;28;20034;-57
2023/06/03 09:46:29;;;;;;;2.63;1.25;;;;;;;;;;5014322;28;20030;-57
2023/06/03 09:49:06;;;;;;;1.45;1.35;;;;;;;;;;5013331;28;20022;-57
2023/06/03 09:51:39;;;;;;;2.47;1.20;;;;;;;;;;5013934;28;20465;-57
2023/06/03 09:54:12;;;;;;;2.03;1.10;;;;;;;;;;5010258;28;20528;-57
2023/06/03 09:56:38;;;;;;;1.35;1.20;;;;;;;;;;5000772;28;20025;-57
2023/06/03 09:59:14;;;;;;;1.25;1.15;;;;;;;;;;5008235;28;20125;-57
2023/06/03 10:01:43;;;;;;;2.47;1.00;;;;;;;;;;5013694;28;20500;-57
2023/06/03 10:04:08;;;;;;;1.83;1.63;;;;;;;;;;5011804;28;20472;-57
2023/06/03 10:06:38;;;;;;;1.45;1.30;;;;;;;;;;5013490;28;20057;-58
2023/06/03 10:09:19;;;;;;;3.08;1.50;;;;;;;;;;5012584;28;20060;-62
2023/06/03 10:11:46;;;;;;;1.23;0.98;;;;;;;;;;5013595;28;20040;-62
2023/06/03 10:14:11;;;;;;;2.05;1.10;;;;;;;;;;5013241;28;20038;-62
2023/06/03 10:16:37;;;;;;;1.30;1.20;;;;;;;;;;5012118;28;20034;-65
2023/06/03 10:19:03;;;;;;;2.83;1.30;;;;;;;;;;5013105;28;20026;-65
2023/06/03 10:21:29;;;;;;;4.03;1.20;;;;;;;;;;5013421;28;20034;-65
2023/06/03 10:23:57;;;;;;;1.20;1.10;;;;;;;;;;5013312;28;20034;-64
2023/06/03 10:26:23;;;;;;;0.88;0.80;;;;;;;;;;5013119;28;20113;-64
2023/06/03 10:28:49;;;;;;;2.85;1.30;;;;;;;;;;5013185;28;20176;-65
2023/06/03 10:31:16;;;;;;;2.60;1.13;;;;;;;;;;5013429;28;20037;-64
2023/06/03 10:33:42;;;;;;;0.90;0.90;;;;;;;;;;5013884;28;20022;-64
2023/06/03 10:36:09;;;;;;;1.10;1.00;;;;;;;;;;5005750;28;20025;-64
2023/06/03 10:38:36;;;;;;;1.08;0.98;;;;;;;;;;4994252;28;20189;-64
2023/06/03 10:41:01;;;;;;;2.58;1.20;;;;;;;;;;4993568;28;20118;-59
2023/06/03 10:43:30;;;;;;;2.95;1.00;;;;;;;;;;4994076;28;20422;-59
2023/06/03 10:45:56;;;;;;;0.93;0.90;;;;;;;;;;5006291;28;20065;-65
2023/06/03 10:48:22;;;;;;;1.88;1.05;;;;;;;;;;5013362;28;20029;-64
2023/06/03 10:50:50;;;;;;;1.30;1.10;;;;;;;;;;5013311;28;20440;-64
2023/06/03 10:53:23;;;;;;;1.27;1.17;;;;;;;;;;5009079;28;20030;-64
2023/06/03 10:56:02;;;;;;;2.50;1.10;;;;;;;;;;4993746;28;20443;-64
2023/06/03 10:58:28;;;;;;;1.15;1.05;;;;;;;;;;4992622;28;20026;-64
2023/06/03 11:00:58;;;;;;;2.53;1.00;;;;;;;;;;4993776;28;20529;-65
2023/06/03 11:03:24;;;;;;;1.90;1.20;;;;;;;;;;4998410;28;20438;-59
2023/06/03 11:05:50;;;;;;;1.65;1.40;;;;;;;;;;4996376;28;20074;-64
2023/06/03 11:08:48;;;;;;;6.68;1.77;;;;;;;;;;4993620;28;20522;-60
2023/06/03 11:11:36;;;;;;;1.95;1.38;;;;;;;;;;4960925;28;20038;-60
2023/06/03 11:14:01;;;;;;;2.47;1.20;;;;;;;;;;5003105;28;20388;-60
2023/06/03 11:16:26;;;;;;;1.98;0.90;;;;;;;;;;5013037;28;20105;-60
2023/06/03 11:19:11;;;;;;;1.30;1.20;;;;;;;;;;5012785;28;20026;-60
2023/06/03 11:21:46;;;;;;;4.65;1.13;;;;;;;;;;5012556;28;20038;-60
2023/06/03 11:24:12;;;;;;;1.83;1.00;;;;;;;;;;5000204;28;20101;-67
2023/06/03 11:26:38;;;;;;;1.48;1.20;;;;;;;;;;4991834;28;20030;-67
2023/06/03 11:29:05;;;;;;;0.98;0.80;;;;;;;;;;4996850;28;20482;-67
2023/06/03 11:31:32;;;;;;;2.20;0.93;;;;;;;;;;5034023;28;20029;-67
2023/06/03 11:34:16;;;;;;;1.40;1.30;;;;;;;;;;5035753;28;20025;-68
2023/06/03 11:36:49;;;;;;;2.00;1.10;;;;;;;;;;5018750;28;20030;-68
2023/06/03 11:39:15;;;;;;;4.25;1.13;;;;;;;;;;5036265;28;20029;-70
2023/06/03 11:42:00;;;;;;;2.25;0.90;;;;;;;;;;5018177;28;20075;-70
2023/06/03 11:44:25;;;;;;;2.40;1.13;;;;;;;;;;5035976;28;20064;-65
2023/06/03 11:46:54;;;;;;;2.30;1.05;;;;;;;;;;5018471;28;20021;-64
2023/06/03 11:49:22;;;;;;;3.13;0.90;;;;;;;;;;5036040;28;20519;-64
2023/06/03 11:51:50;;;;;;;1.10;0.80;;;;;;;;;;5035818;28;20049;-64
2023/06/03 11:54:16;;;;;;;1.52;1.02;;;;;;;;;;5035379;28;20038;-64
2023/06/03 11:56:45;;;;;;;2.83;1.50;;;;;;;;;;5035136;28;20431;-64
2023/06/03 11:59:12;;;;;;;1.08;1.02;;;;;;;;;;5035203;28;20383;-59
2023/06/03 12:01:37;;;;;;;1.35;1.00;;;;;;;;;;5017669;28;20018;-59
2023/06/03 12:04:02;;;;;;;3.25;1.23;;;;;;;;;;5035833;28;20445;-59
2023/06/03 12:06:37;;;;;;;2.60;1.10;;;;;;;;;;5035799;28;20055;-59
2023/06/03 12:09:03;;;;;;;1.77;1.30;;;;;;;;;;5035017;28;20041;-64
2023/06/03 12:11:28;;;;;;;3.13;1.85;;;;;;;;;;5016954;28;20021;-64
2023/06/03 12:13:54;;;;;;;1.75;1.10;;;;;;;;;;5035195;28;20037;-64
2023/06/03 12:16:45;;;;;;;1.10;1.00;;;;;;;;;;5017631;28;20108;-64
2023/06/03 12:19:11;;;;;;;1.05;0.90;;;;;;;;;;5031319;28;20037;-64
2023/06/03 12:21:37;;;;;;;1.10;1.00;;;;;;;;;;5035596;28;20100;-64
2023/06/03 12:24:10;;;;;;;1.08;0.85;;;;;;;;;;5035503;28;20034;-64
2023/06/03 12:26:40;;;;;;;1.17;0.93;;;;;;;;;;5017513;28;20072;-64
2023/06/03 12:29:10;;;;;;;1.70;0.93;;;;;;;;;;5034717;28;20038;-64
2023/06/03 12:31:35;;;;;;;2.08;0.90;;;;;;;;;;5035070;28;20037;-64
2023/06/03 12:34:01;;;;;;;2.78;0.75;;;;;;;;;;5035157;28;20037;-64
2023/06/03 12:36:56;;;;;;;1.38;1.00;;;;;;;;;;5035377;28;20029;-64
2023/06/03 12:39:37;;;;;;;1.85;0.88;;;;;;;;;;5017659;28;20046;-64
2023/06/03 12:42:03;;;;;;;1.45;1.35;;;;;;;;;;5017534;28;20063;-64
2023/06/03 12:47:12;;;;;;;3.20;2.88;;;;;;;;;;5053732;28;20056;-66
2023/06/03 12:49:37;;;;;;;2.58;0.95;;;;;;;;;;5055484;28;20495;-67
2023/06/03 12:52:09;;;;;;;1.63;0.93;;;;;;;;;;5055019;28;20088;-67
2023/06/03 12:54:36;;;;;;;0.98;0.90;;;;;;;;;;5055150;28;20039;-67
2023/06/03 12:57:02;;;;;;;1.13;1.00;;;;;;;;;;5055424;28;20021;-67
2023/06/03 12:59:27;;;;;;;2.88;0.82;;;;;;;;;;5055057;28;20491;-67
2023/06/03 13:01:52;;;;;;;2.28;1.00;;;;;;;;;;5055042;28;20439;-64
2023/06/03 13:04:18;;;;;;;1.05;0.90;;;;;;;;;;5037109;28;20033;-64
2023/06/03 13:06:44;;;;;;;0.80;0.80;;;;;;;;;;5055216;28;20120;-64
2023/06/03 13:09:09;;;;;;;1.45;1.10;;;;;;;;;;5054798;28;20044;-64
2023/06/03 13:11:35;;;;;;;1.20;0.93;;;;;;;;;;5054683;28;20447;-64
2023/06/03 13:14:01;;;;;;;2.05;1.00;;;;;;;;;;5054579;28;20025;-64
2023/06/03 13:16:27;;;;;;;0.98;0.88;;;;;;;;;;5036680;28;20021;-64
2023/06/03 13:18:52;;;;;;;2.00;1.20;;;;;;;;;;5037238;28;20380;-64
2023/06/03 13:21:17;;;;;;;5.18;1.55;;;;;;;;;;5054907;28;20032;-64
2023/06/03 13:23:43;;;;;;;2.17;0.98;;;;;;;;;;5054606;28;20491;-64
2023/06/03 13:26:09;;;;;;;1.75;1.30;;;;;;;;;;5055076;28;20468;-64
2023/06/03 13:28:34;;;;;;;3.40;2.63;;;;;;;;;;5054421;28;20110;-62
2023/06/03 13:30:59;;;;;;;2.53;1.20;;;;;;;;;;5054445;28;20388;-63
2023/06/03 13:33:25;;;;;;;1.35;1.00;;;;;;;;;;5054373;28;20361;-63
2023/06/03 13:35:50;;;;;;;4.35;1.10;;;;;;;;;;5052289;28;20059;-63
2023/06/03 13:38:15;;;;;;;3.08;1.52;;;;;;;;;;5034733;28;20025;-62
2023/06/03 13:40:41;;;;;;;2.42;1.73;;;;;;;;;;5034342;28;20140;-63
2023/06/03 13:43:06;;;;;;;2.25;1.50;;;;;;;;;;5033903;28;20036;-63
2023/06/03 13:45:32;;;;;;;5.85;4.75;;;;;;;;;;5042314;28;20400;-63
2023/06/03 13:47:57;;;;;;;3.08;2.05;;;;;;;;;;5036177;28;20028;-63
2023/06/03 13:50:22;;;;;;;2.10;1.33;;;;;;;;;;5054516;28;20043;-63
2023/06/03 13:52:48;;;;;;;1.65;1.00;;;;;;;;;;5053993;28;20032;-63
2023/06/03 13:55:13;;;;;;;1.73;1.10;;;;;;;;;;5053337;28;20029;-59
2023/06/03 13:57:39;;;;;;;1.00;1.00;;;;;;;;;;5049073;28;20082;-59
2023/06/03 14:00:04;;;;;;;1.23;1.10;;;;;;;;;;5032433;28;20028;-59
2023/06/03 14:02:30;;;;;;;2.50;1.50;;;;;;;;;;5034030;28;20116;-59
2023/06/03 14:04:55;;;;;;;1.08;1.00;;;;;;;;;;5034306;28;20465;-59
2023/06/03 14:07:21;;;;;;;1.40;1.30;;;;;;;;;;5051819;28;20033;-59
2023/06/03 14:09:47;;;;;;;3.85;1.30;;;;;;;;;;5053506;28;20118;-59
2023/06/03 14:12:12;;;;;;;1.55;0.90;;;;;;;;;;5040186;28;20048;-59
2023/06/03 14:14:38;;;;;;;2.42;1.65;;;;;;;;;;5052214;28;20021;-59
2023/06/03 14:17:03;;;;;;;2.75;2.50;;;;;;;;;;5053871;28;20029;-59
2023/06/03 14:19:30;;;;;;;7.80;2.00;;;;;;;;;;5053292;28;20104;-58
2023/06/03 14:21:55;;;;;;;3.85;2.55;;;;;;;;;;5041015;28;20043;-59
2023/06/03 14:24:20;;;;;;;1.77;1.20;;;;;;;;;;5053365;28;20469;-62
2023/06/03 14:26:46;;;;;;;1.35;1.20;;;;;;;;;;5052345;28;20025;-63
2023/06/03 14:29:11;;;;;;;0.90;0.90;;;;;;;;;;5053831;28;20112;-63
2023/06/03 14:31:37;;;;;;;1.60;1.42;;;;;;;;;;5054254;28;20029;-63
2023/06/03 14:34:04;;;;;;;2.80;2.13;;;;;;;;;;5053710;28;20029;-63
2023/06/03 14:36:29;;;;;;;2.92;2.55;;;;;;;;;;5053273;28;20025;-63
2023/06/03 14:38:55;;;;;;;1.00;1.00;;;;;;;;;;5033456;28;20037;-63
2023/06/03 14:41:20;;;;;;;1.95;1.85;;;;;;;;;;5043844;28;20053;-63
2023/06/03 14:43:46;;;;;;;2.35;1.40;;;;;;;;;;5035465;28;20464;-63
2023/06/03 14:46:11;;;;;;;2.60;2.40;;;;;;;;;;5053514;28;20052;-63
2023/06/03 14:48:36;;;;;;;3.65;1.60;;;;;;;;;;5035399;28;20440;-63